sensor_id;sensor_type;location;lat;lon;timestamp;P1;durP1;ratioP1;P2;durP2;ratioP2
55589;SDS011;41452;42.780;23.116;2022-07-04T00:02:16;13.13;;;8.48;;
55589;SDS011;41452;42.780;23.116;2022-07-04T00:04:42;13.15;;;8.57;;
55589;SDS011;41452;42.780;23.116;2022-07-04T00:07:07;13.27;;;8.75;;
55589;SDS011;41452;42.780;23.116;2022-07-04T00:09:33;12.88;;;7.85;;
55589;SDS011;41452;42.780;23.116;2022-07-04T00:11:59;9.88;;;7.50;;
55589;SDS011;41452;42.780;23.116;2022-07-04T00:14:24;9.05;;;7.53;;
55589;SDS011;41452;42.780;23.116;2022-07-04T00:16:50;14.00;;;7.60;;
55589;SDS011;41452;42.780;23.116;2022-07-04T00:19:15;11.20;;;7.90;;
55589;SDS011;41452;42.780;23.116;2022-07-04T00:21:40;15.48;;;7.80;;
55589;SDS011;41452;42.780;23.116;2022-07-04T00:24:06;9.85;;;7.05;;
55589;SDS011;41452;42.780;23.116;2022-07-04T00:26:31;13.07;;;7.10;;
55589;SDS011;41452;42.780;23.116;2022-07-04T00:28:56;12.68;;;7.25;;
55589;SDS011;41452;42.780;23.116;2022-07-04T00:31:22;9.68;;;7.30;;
55589;SDS011;41452;42.780;23.116;2022-07-04T00:33:47;9.48;;;6.60;;
55589;SDS011;41452;42.780;23.116;2022-07-04T00:36:13;8.05;;;6.85;;
55589;SDS011;41452;42.780;23.116;2022-07-04T00:38:38;10.98;;;7.22;;
55589;SDS011;41452;42.780;23.116;2022-07-04T00:41:04;13.82;;;6.95;;
55589;SDS011;41452;42.780;23.116;2022-07-04T00:43:29;9.98;;;6.55;;
55589;SDS011;41452;42.780;23.116;2022-07-04T00:45:55;12.00;;;6.50;;
55589;SDS011;41452;42.780;23.116;2022-07-04T00:48:23;9.82;;;6.63;;
55589;SDS011;41452;42.780;23.116;2022-07-04T00:50:48;11.65;;;6.70;;
55589;SDS011;41452;42.780;23.116;2022-07-04T00:53:14;7.72;;;6.22;;
55589;SDS011;41452;42.780;23.116;2022-07-04T00:55:40;11.07;;;6.38;;
55589;SDS011;41452;42.780;23.116;2022-07-04T00:58:07;9.10;;;6.30;;
55589;SDS011;41452;42.780;23.116;2022-07-04T01:00:33;9.85;;;6.53;;
55589;SDS011;41452;42.780;23.116;2022-07-04T01:02:58;8.27;;;6.15;;
55589;SDS011;41452;42.780;23.116;2022-07-04T01:05:24;12.50;;;6.43;;
55589;SDS011;41452;42.780;23.116;2022-07-04T01:07:50;8.88;;;6.13;;
55589;SDS011;41452;42.780;23.116;2022-07-04T01:10:15;8.50;;;5.95;;
55589;SDS011;41452;42.780;23.116;2022-07-04T01:12:41;10.15;;;6.30;;
55589;SDS011;41452;42.780;23.116;2022-07-04T01:15:06;8.05;;;6.25;;
55589;SDS011;41452;42.780;23.116;2022-07-04T01:17:32;7.93;;;5.75;;
55589;SDS011;41452;42.780;23.116;2022-07-04T01:19:58;10.05;;;5.75;;
55589;SDS011;41452;42.780;23.116;2022-07-04T01:22:24;7.82;;;6.00;;
55589;SDS011;41452;42.780;23.116;2022-07-04T01:24:49;11.82;;;5.78;;
55589;SDS011;41452;42.780;23.116;2022-07-04T01:27:15;7.78;;;5.80;;
55589;SDS011;41452;42.780;23.116;2022-07-04T01:29:41;8.13;;;5.82;;
55589;SDS011;41452;42.780;23.116;2022-07-04T01:32:07;8.52;;;6.03;;
55589;SDS011;41452;42.780;23.116;2022-07-04T01:34:34;9.80;;;5.68;;
55589;SDS011;41452;42.780;23.116;2022-07-04T01:37:00;7.70;;;5.47;;
55589;SDS011;41452;42.780;23.116;2022-07-04T01:39:27;8.05;;;5.15;;
55589;SDS011;41452;42.780;23.116;2022-07-04T01:41:53;12.90;;;5.60;;
55589;SDS011;41452;42.780;23.116;2022-07-04T01:44:19;10.05;;;5.57;;
55589;SDS011;41452;42.780;23.116;2022-07-04T01:46:45;6.70;;;5.13;;
55589;SDS011;41452;42.780;23.116;2022-07-04T01:49:10;7.68;;;5.10;;
55589;SDS011;41452;42.780;23.116;2022-07-04T01:51:42;8.88;;;5.55;;
55589;SDS011;41452;42.780;23.116;2022-07-04T01:54:09;6.90;;;5.20;;
55589;SDS011;41452;42.780;23.116;2022-07-04T01:56:34;7.95;;;5.18;;
55589;SDS011;41452;42.780;23.116;2022-07-04T01:58:59;10.27;;;5.70;;
55589;SDS011;41452;42.780;23.116;2022-07-04T02:01:26;8.93;;;5.57;;
55589;SDS011;41452;42.780;23.116;2022-07-04T02:03:55;7.97;;;4.95;;
55589;SDS011;41452;42.780;23.116;2022-07-04T02:06:22;7.78;;;4.72;;
55589;SDS011;41452;42.780;23.116;2022-07-04T02:08:47;6.72;;;4.80;;
55589;SDS011;41452;42.780;23.116;2022-07-04T02:11:32;7.85;;;4.70;;
55589;SDS011;41452;42.780;23.116;2022-07-04T02:14:17;7.45;;;4.90;;
55589;SDS011;41452;42.780;23.116;2022-07-04T02:16:42;9.88;;;5.13;;
55589;SDS011;41452;42.780;23.116;2022-07-04T02:19:08;7.57;;;5.05;;
55589;SDS011;41452;42.780;23.116;2022-07-04T02:21:33;7.07;;;5.03;;
55589;SDS011;41452;42.780;23.116;2022-07-04T02:23:59;6.68;;;4.65;;
55589;SDS011;41452;42.780;23.116;2022-07-04T02:26:24;9.65;;;4.88;;
55589;SDS011;41452;42.780;23.116;2022-07-04T02:28:50;5.82;;;4.32;;
55589;SDS011;41452;42.780;23.116;2022-07-04T02:31:16;7.43;;;4.80;;
55589;SDS011;41452;42.780;23.116;2022-07-04T02:33:42;9.55;;;4.28;;
55589;SDS011;41452;42.780;23.116;2022-07-04T02:36:07;9.05;;;4.75;;
55589;SDS011;41452;42.780;23.116;2022-07-04T02:38:33;7.78;;;4.70;;
55589;SDS011;41452;42.780;23.116;2022-07-04T02:40:58;7.18;;;4.90;;
55589;SDS011;41452;42.780;23.116;2022-07-04T02:43:23;7.25;;;4.60;;
55589;SDS011;41452;42.780;23.116;2022-07-04T02:45:49;8.77;;;4.28;;
55589;SDS011;41452;42.780;23.116;2022-07-04T02:48:14;6.28;;;4.68;;
55589;SDS011;41452;42.780;23.116;2022-07-04T02:50:39;9.85;;;4.68;;
55589;SDS011;41452;42.780;23.116;2022-07-04T02:53:05;6.93;;;4.55;;
55589;SDS011;41452;42.780;23.116;2022-07-04T02:55:30;7.05;;;4.90;;
55589;SDS011;41452;42.780;23.116;2022-07-04T02:57:56;8.70;;;4.90;;
55589;SDS011;41452;42.780;23.116;2022-07-04T03:00:21;6.20;;;3.80;;
55589;SDS011;41452;42.780;23.116;2022-07-04T03:02:46;10.02;;;4.75;;
55589;SDS011;41452;42.780;23.116;2022-07-04T03:05:12;8.20;;;4.40;;
55589;SDS011;41452;42.780;23.116;2022-07-04T03:07:37;5.18;;;4.05;;
55589;SDS011;41452;42.780;23.116;2022-07-04T03:10:02;9.38;;;4.25;;
55589;SDS011;41452;42.780;23.116;2022-07-04T03:12:28;7.40;;;4.28;;
55589;SDS011;41452;42.780;23.116;2022-07-04T03:14:53;7.25;;;4.32;;
55589;SDS011;41452;42.780;23.116;2022-07-04T03:17:19;6.65;;;4.55;;
55589;SDS011;41452;42.780;23.116;2022-07-04T03:19:45;5.45;;;4.07;;
55589;SDS011;41452;42.780;23.116;2022-07-04T03:22:10;6.43;;;3.95;;
55589;SDS011;41452;42.780;23.116;2022-07-04T03:24:36;8.80;;;4.55;;
55589;SDS011;41452;42.780;23.116;2022-07-04T03:27:01;13.50;;;4.30;;
55589;SDS011;41452;42.780;23.116;2022-07-04T03:29:27;7.07;;;4.50;;
55589;SDS011;41452;42.780;23.116;2022-07-04T03:31:52;6.53;;;4.20;;
55589;SDS011;41452;42.780;23.116;2022-07-04T03:34:18;5.80;;;3.88;;
55589;SDS011;41452;42.780;23.116;2022-07-04T03:36:43;11.32;;;4.88;;
55589;SDS011;41452;42.780;23.116;2022-07-04T03:39:08;5.97;;;4.07;;
55589;SDS011;41452;42.780;23.116;2022-07-04T03:41:34;8.05;;;4.18;;
55589;SDS011;41452;42.780;23.116;2022-07-04T03:44:01;8.45;;;4.30;;
55589;SDS011;41452;42.780;23.116;2022-07-04T03:46:26;6.47;;;4.65;;
55589;SDS011;41452;42.780;23.116;2022-07-04T03:48:52;10.57;;;4.10;;
55589;SDS011;41452;42.780;23.116;2022-07-04T03:51:18;7.65;;;3.72;;
55589;SDS011;41452;42.780;23.116;2022-07-04T03:53:43;5.93;;;4.18;;
55589;SDS011;41452;42.780;23.116;2022-07-04T03:56:09;6.10;;;3.90;;
55589;SDS011;41452;42.780;23.116;2022-07-04T03:58:35;8.10;;;4.82;;
55589;SDS011;41452;42.780;23.116;2022-07-04T04:01:01;6.25;;;4.40;;
55589;SDS011;41452;42.780;23.116;2022-07-04T04:03:26;10.52;;;3.95;;
55589;SDS011;41452;42.780;23.116;2022-07-04T04:06:10;6.30;;;4.30;;
55589;SDS011;41452;42.780;23.116;2022-07-04T04:08:36;7.30;;;4.47;;
55589;SDS011;41452;42.780;23.116;2022-07-04T04:11:01;8.90;;;4.90;;
55589;SDS011;41452;42.780;23.116;2022-07-04T04:13:27;9.75;;;5.63;;
55589;SDS011;41452;42.780;23.116;2022-07-04T04:15:52;16.42;;;5.60;;
55589;SDS011;41452;42.780;23.116;2022-07-04T04:18:17;11.35;;;5.40;;
55589;SDS011;41452;42.780;23.116;2022-07-04T04:20:43;8.05;;;4.70;;
55589;SDS011;41452;42.780;23.116;2022-07-04T04:23:08;10.50;;;5.50;;
55589;SDS011;41452;42.780;23.116;2022-07-04T04:25:34;12.80;;;4.80;;
55589;SDS011;41452;42.780;23.116;2022-07-04T04:27:59;7.40;;;5.18;;
55589;SDS011;41452;42.780;23.116;2022-07-04T04:30:24;7.20;;;4.65;;
55589;SDS011;41452;42.780;23.116;2022-07-04T04:32:50;8.20;;;4.95;;
55589;SDS011;41452;42.780;23.116;2022-07-04T04:35:15;11.25;;;5.35;;
55589;SDS011;41452;42.780;23.116;2022-07-04T04:37:40;8.00;;;5.38;;
55589;SDS011;41452;42.780;23.116;2022-07-04T04:40:06;9.07;;;4.50;;
55589;SDS011;41452;42.780;23.116;2022-07-04T04:42:32;5.97;;;4.90;;
55589;SDS011;41452;42.780;23.116;2022-07-04T04:44:57;9.85;;;5.40;;
55589;SDS011;41452;42.780;23.116;2022-07-04T04:47:23;12.70;;;5.47;;
55589;SDS011;41452;42.780;23.116;2022-07-04T04:49:48;11.88;;;4.65;;
55589;SDS011;41452;42.780;23.116;2022-07-04T04:52:13;9.07;;;4.95;;
55589;SDS011;41452;42.780;23.116;2022-07-04T04:54:39;20.15;;;4.78;;
55589;SDS011;41452;42.780;23.116;2022-07-04T04:57:05;11.32;;;4.35;;
55589;SDS011;41452;42.780;23.116;2022-07-04T04:59:31;8.75;;;4.90;;
55589;SDS011;41452;42.780;23.116;2022-07-04T05:01:57;5.90;;;4.38;;
55589;SDS011;41452;42.780;23.116;2022-07-04T05:04:23;10.60;;;4.85;;
55589;SDS011;41452;42.780;23.116;2022-07-04T05:06:49;6.78;;;4.63;;
55589;SDS011;41452;42.780;23.116;2022-07-04T05:09:15;8.20;;;4.35;;
55589;SDS011;41452;42.780;23.116;2022-07-04T05:11:40;8.27;;;4.18;;
55589;SDS011;41452;42.780;23.116;2022-07-04T05:14:06;8.23;;;4.65;;
55589;SDS011;41452;42.780;23.116;2022-07-04T05:16:31;6.00;;;4.07;;
55589;SDS011;41452;42.780;23.116;2022-07-04T05:18:57;9.23;;;4.35;;
55589;SDS011;41452;42.780;23.116;2022-07-04T05:21:22;11.27;;;4.82;;
55589;SDS011;41452;42.780;23.116;2022-07-04T05:23:51;6.68;;;3.92;;
55589;SDS011;41452;42.780;23.116;2022-07-04T05:26:16;7.95;;;4.13;;
55589;SDS011;41452;42.780;23.116;2022-07-04T05:28:42;6.75;;;4.32;;
55589;SDS011;41452;42.780;23.116;2022-07-04T05:31:07;6.07;;;4.22;;
55589;SDS011;41452;42.780;23.116;2022-07-04T05:33:32;7.03;;;4.10;;
55589;SDS011;41452;42.780;23.116;2022-07-04T05:35:58;5.88;;;4.15;;
55589;SDS011;41452;42.780;23.116;2022-07-04T05:38:24;6.35;;;3.80;;
55589;SDS011;41452;42.780;23.116;2022-07-04T05:40:49;9.48;;;3.65;;
55589;SDS011;41452;42.780;23.116;2022-07-04T05:43:14;10.20;;;3.50;;
55589;SDS011;41452;42.780;23.116;2022-07-04T05:45:40;10.05;;;4.30;;
55589;SDS011;41452;42.780;23.116;2022-07-04T05:48:05;10.13;;;3.55;;
55589;SDS011;41452;42.780;23.116;2022-07-04T05:50:31;9.05;;;4.05;;
55589;SDS011;41452;42.780;23.116;2022-07-04T05:52:56;7.80;;;3.65;;
55589;SDS011;41452;42.780;23.116;2022-07-04T05:55:22;9.52;;;3.53;;
55589;SDS011;41452;42.780;23.116;2022-07-04T05:57:47;6.55;;;3.20;;
55589;SDS011;41452;42.780;23.116;2022-07-04T06:00:12;7.32;;;3.38;;
55589;SDS011;41452;42.780;23.116;2022-07-04T06:02:38;5.28;;;3.28;;
55589;SDS011;41452;42.780;23.116;2022-07-04T06:05:04;7.35;;;3.40;;
55589;SDS011;41452;42.780;23.116;2022-07-04T06:07:30;5.30;;;3.30;;
55589;SDS011;41452;42.780;23.116;2022-07-04T06:09:55;12.05;;;3.85;;
55589;SDS011;41452;42.780;23.116;2022-07-04T06:12:20;10.60;;;2.90;;
55589;SDS011;41452;42.780;23.116;2022-07-04T06:14:46;6.47;;;3.35;;
55589;SDS011;41452;42.780;23.116;2022-07-04T06:17:11;3.67;;;2.53;;
55589;SDS011;41452;42.780;23.116;2022-07-04T06:19:37;4.35;;;2.83;;
55589;SDS011;41452;42.780;23.116;2022-07-04T06:22:02;8.65;;;3.40;;
55589;SDS011;41452;42.780;23.116;2022-07-04T06:24:28;5.63;;;3.25;;
55589;SDS011;41452;42.780;23.116;2022-07-04T06:26:54;10.05;;;3.60;;
55589;SDS011;41452;42.780;23.116;2022-07-04T06:29:19;6.38;;;2.92;;
55589;SDS011;41452;42.780;23.116;2022-07-04T06:31:45;8.50;;;3.13;;
55589;SDS011;41452;42.780;23.116;2022-07-04T06:34:10;10.77;;;4.10;;
55589;SDS011;41452;42.780;23.116;2022-07-04T06:37:02;7.38;;;3.80;;
55589;SDS011;41452;42.780;23.116;2022-07-04T06:39:28;7.47;;;3.45;;
55589;SDS011;41452;42.780;23.116;2022-07-04T06:41:53;7.35;;;3.05;;
55589;SDS011;41452;42.780;23.116;2022-07-04T06:44:18;7.18;;;3.10;;
55589;SDS011;41452;42.780;23.116;2022-07-04T06:46:44;5.47;;;3.13;;
55589;SDS011;41452;42.780;23.116;2022-07-04T06:49:11;5.63;;;3.10;;
55589;SDS011;41452;42.780;23.116;2022-07-04T06:51:36;7.45;;;2.97;;
55589;SDS011;41452;42.780;23.116;2022-07-04T06:54:02;9.95;;;3.55;;
55589;SDS011;41452;42.780;23.116;2022-07-04T06:56:27;3.95;;;2.90;;
55589;SDS011;41452;42.780;23.116;2022-07-04T06:58:52;4.78;;;2.97;;
55589;SDS011;41452;42.780;23.116;2022-07-04T07:01:18;7.43;;;3.78;;
55589;SDS011;41452;42.780;23.116;2022-07-04T07:03:43;7.82;;;3.13;;
55589;SDS011;41452;42.780;23.116;2022-07-04T07:06:08;5.90;;;3.20;;
55589;SDS011;41452;42.780;23.116;2022-07-04T07:08:34;4.43;;;2.88;;
55589;SDS011;41452;42.780;23.116;2022-07-04T07:10:59;6.70;;;3.47;;
55589;SDS011;41452;42.780;23.116;2022-07-04T07:13:41;7.38;;;3.10;;
55589;SDS011;41452;42.780;23.116;2022-07-04T07:16:10;4.18;;;3.10;;
55589;SDS011;41452;42.780;23.116;2022-07-04T07:18:37;7.63;;;3.55;;
55589;SDS011;41452;42.780;23.116;2022-07-04T07:21:02;4.82;;;3.28;;
55589;SDS011;41452;42.780;23.116;2022-07-04T07:23:28;4.57;;;3.05;;
55589;SDS011;41452;42.780;23.116;2022-07-04T07:25:54;6.78;;;3.05;;
55589;SDS011;41452;42.780;23.116;2022-07-04T07:28:19;7.88;;;3.40;;
55589;SDS011;41452;42.780;23.116;2022-07-04T07:30:45;6.97;;;2.83;;
55589;SDS011;41452;42.780;23.116;2022-07-04T07:33:10;4.72;;;3.33;;
55589;SDS011;41452;42.780;23.116;2022-07-04T07:35:36;9.20;;;3.65;;
55589;SDS011;41452;42.780;23.116;2022-07-04T07:38:01;8.95;;;3.50;;
55589;SDS011;41452;42.780;23.116;2022-07-04T07:40:27;8.52;;;3.45;;
55589;SDS011;41452;42.780;23.116;2022-07-04T07:42:52;7.63;;;3.13;;
55589;SDS011;41452;42.780;23.116;2022-07-04T07:45:19;6.78;;;3.38;;
55589;SDS011;41452;42.780;23.116;2022-07-04T07:47:45;5.05;;;3.28;;
55589;SDS011;41452;42.780;23.116;2022-07-04T07:50:11;7.05;;;3.50;;
55589;SDS011;41452;42.780;23.116;2022-07-04T07:52:37;4.03;;;2.95;;
55589;SDS011;41452;42.780;23.116;2022-07-04T07:55:03;8.88;;;3.47;;
55589;SDS011;41452;42.780;23.116;2022-07-04T07:57:30;6.32;;;3.03;;
55589;SDS011;41452;42.780;23.116;2022-07-04T07:59:55;7.07;;;3.40;;
55589;SDS011;41452;42.780;23.116;2022-07-04T08:02:21;7.75;;;3.10;;
55589;SDS011;41452;42.780;23.116;2022-07-04T08:05:08;7.85;;;3.58;;
55589;SDS011;41452;42.780;23.116;2022-07-04T08:07:34;5.47;;;3.60;;
55589;SDS011;41452;42.780;23.116;2022-07-04T08:09:59;6.65;;;3.50;;
55589;SDS011;41452;42.780;23.116;2022-07-04T08:12:25;11.65;;;4.00;;
55589;SDS011;41452;42.780;23.116;2022-07-04T08:14:50;7.43;;;3.58;;
55589;SDS011;41452;42.780;23.116;2022-07-04T08:17:15;7.00;;;3.80;;
55589;SDS011;41452;42.780;23.116;2022-07-04T08:19:41;6.85;;;4.10;;
55589;SDS011;41452;42.780;23.116;2022-07-04T08:22:06;6.30;;;3.50;;
55589;SDS011;41452;42.780;23.116;2022-07-04T08:24:32;7.25;;;3.72;;
55589;SDS011;41452;42.780;23.116;2022-07-04T08:26:57;9.18;;;3.90;;
55589;SDS011;41452;42.780;23.116;2022-07-04T08:29:22;6.00;;;3.58;;
55589;SDS011;41452;42.780;23.116;2022-07-04T08:31:48;6.38;;;4.15;;
55589;SDS011;41452;42.780;23.116;2022-07-04T08:34:13;4.82;;;3.42;;
55589;SDS011;41452;42.780;23.116;2022-07-04T08:36:39;9.20;;;3.90;;
55589;SDS011;41452;42.780;23.116;2022-07-04T08:39:04;5.13;;;4.10;;
55589;SDS011;41452;42.780;23.116;2022-07-04T08:41:34;8.95;;;3.97;;
55589;SDS011;41452;42.780;23.116;2022-07-04T08:44:03;5.03;;;3.85;;
55589;SDS011;41452;42.780;23.116;2022-07-04T08:46:30;5.63;;;3.65;;
55589;SDS011;41452;42.780;23.116;2022-07-04T08:48:56;5.90;;;3.80;;
55589;SDS011;41452;42.780;23.116;2022-07-04T08:54:12;8.45;;;4.50;;
55589;SDS011;41452;42.780;23.116;2022-07-04T08:56:56;9.05;;;4.70;;
55589;SDS011;41452;42.780;23.116;2022-07-04T08:59:41;6.15;;;4.32;;
55589;SDS011;41452;42.780;23.116;2022-07-04T09:02:10;6.70;;;4.65;;
55589;SDS011;41452;42.780;23.116;2022-07-04T09:04:38;9.75;;;4.80;;
55589;SDS011;41452;42.780;23.116;2022-07-04T09:07:05;11.77;;;4.97;;
55589;SDS011;41452;42.780;23.116;2022-07-04T09:09:32;7.95;;;4.38;;
55589;SDS011;41452;42.780;23.116;2022-07-04T09:11:57;7.00;;;4.93;;
55589;SDS011;41452;42.780;23.116;2022-07-04T09:14:23;10.85;;;5.30;;
55589;SDS011;41452;42.780;23.116;2022-07-04T09:16:48;11.20;;;4.88;;
55589;SDS011;41452;42.780;23.116;2022-07-04T09:19:20;10.18;;;4.65;;
55589;SDS011;41452;42.780;23.116;2022-07-04T09:21:47;6.72;;;4.90;;
55589;SDS011;41452;42.780;23.116;2022-07-04T09:24:13;6.88;;;4.95;;
55589;SDS011;41452;42.780;23.116;2022-07-04T09:26:40;9.90;;;5.30;;
55589;SDS011;41452;42.780;23.116;2022-07-04T09:29:08;6.72;;;5.15;;
55589;SDS011;41452;42.780;23.116;2022-07-04T09:31:34;9.07;;;5.18;;
55589;SDS011;41452;42.780;23.116;2022-07-04T09:34:02;10.35;;;5.13;;
55589;SDS011;41452;42.780;23.116;2022-07-04T09:36:31;9.52;;;4.57;;
55589;SDS011;41452;42.780;23.116;2022-07-04T09:44:27;8.60;;;4.82;;
55589;SDS011;41452;42.780;23.116;2022-07-04T09:46:53;8.93;;;4.78;;
55589;SDS011;41452;42.780;23.116;2022-07-04T09:49:21;11.00;;;5.82;;
55589;SDS011;41452;42.780;23.116;2022-07-04T09:51:51;6.68;;;4.47;;
55589;SDS011;41452;42.780;23.116;2022-07-04T09:54:25;7.32;;;4.55;;
55589;SDS011;41452;42.780;23.116;2022-07-04T09:56:55;9.43;;;4.85;;
55589;SDS011;41452;42.780;23.116;2022-07-04T09:59:23;9.25;;;5.03;;
55589;SDS011;41452;42.780;23.116;2022-07-04T10:01:50;6.70;;;5.20;;
55589;SDS011;41452;42.780;23.116;2022-07-04T10:04:16;5.45;;;4.40;;
55589;SDS011;41452;42.780;23.116;2022-07-04T10:06:43;5.57;;;4.63;;
55589;SDS011;41452;42.780;23.116;2022-07-04T10:09:13;10.35;;;5.10;;
55589;SDS011;41452;42.780;23.116;2022-07-04T10:11:41;6.75;;;4.30;;
55589;SDS011;41452;42.780;23.116;2022-07-04T10:14:08;6.85;;;5.03;;
55589;SDS011;41452;42.780;23.116;2022-07-04T10:16:36;13.05;;;5.20;;
55589;SDS011;41452;42.780;23.116;2022-07-04T10:19:02;7.80;;;4.75;;
55589;SDS011;41452;42.780;23.116;2022-07-04T10:21:28;7.53;;;4.93;;
55589;SDS011;41452;42.780;23.116;2022-07-04T10:23:55;13.70;;;5.03;;
55589;SDS011;41452;42.780;23.116;2022-07-04T10:26:21;10.55;;;5.30;;
55589;SDS011;41452;42.780;23.116;2022-07-04T10:28:48;11.88;;;5.50;;
55589;SDS011;41452;42.780;23.116;2022-07-04T10:31:16;8.93;;;4.85;;
55589;SDS011;41452;42.780;23.116;2022-07-04T10:33:43;9.90;;;5.53;;
55589;SDS011;41452;42.780;23.116;2022-07-04T10:38:58;8.13;;;4.93;;
55589;SDS011;41452;42.780;23.116;2022-07-04T10:41:26;7.32;;;5.32;;
55589;SDS011;41452;42.780;23.116;2022-07-04T10:46:25;13.30;;;5.30;;
55589;SDS011;41452;42.780;23.116;2022-07-04T10:54:16;9.13;;;5.38;;
55589;SDS011;41452;42.780;23.116;2022-07-04T10:56:43;9.98;;;5.22;;
55589;SDS011;41452;42.780;23.116;2022-07-04T10:59:23;8.80;;;5.32;;
55589;SDS011;41452;42.780;23.116;2022-07-04T11:05:04;6.88;;;5.28;;
55589;SDS011;41452;42.780;23.116;2022-07-04T11:07:24;8.02;;;5.88;;
55589;SDS011;41452;42.780;23.116;2022-07-04T11:17:58;6.63;;;5.25;;
55589;SDS011;41452;42.780;23.116;2022-07-04T11:20:31;7.78;;;5.47;;
55589;SDS011;41452;42.780;23.116;2022-07-04T11:23:09;11.45;;;5.88;;
55589;SDS011;41452;42.780;23.116;2022-07-04T11:25:36;7.72;;;5.43;;
55589;SDS011;41452;42.780;23.116;2022-07-04T11:28:23;9.13;;;5.38;;
55589;SDS011;41452;42.780;23.116;2022-07-04T11:31:02;9.18;;;5.53;;
55589;SDS011;41452;42.780;23.116;2022-07-04T11:33:31;8.75;;;5.90;;
55589;SDS011;41452;42.780;23.116;2022-07-04T11:36:06;10.07;;;5.78;;
55589;SDS011;41452;42.780;23.116;2022-07-04T11:38:49;7.47;;;5.60;;
55589;SDS011;41452;42.780;23.116;2022-07-04T11:41:25;11.63;;;5.70;;
55589;SDS011;41452;42.780;23.116;2022-07-04T11:44:18;8.45;;;5.80;;
55589;SDS011;41452;42.780;23.116;2022-07-04T11:47:16;7.40;;;5.40;;
55589;SDS011;41452;42.780;23.116;2022-07-04T11:49:45;10.32;;;5.95;;
55589;SDS011;41452;42.780;23.116;2022-07-04T11:52:15;13.90;;;5.40;;
55589;SDS011;41452;42.780;23.116;2022-07-04T11:54:43;8.80;;;5.45;;
55589;SDS011;41452;42.780;23.116;2022-07-04T11:57:10;10.60;;;5.93;;
55589;SDS011;41452;42.780;23.116;2022-07-04T11:59:39;7.78;;;5.88;;
55589;SDS011;41452;42.780;23.116;2022-07-04T12:02:09;6.25;;;5.03;;
55589;SDS011;41452;42.780;23.116;2022-07-04T12:04:37;11.13;;;5.32;;
55589;SDS011;41452;42.780;23.116;2022-07-04T12:07:08;11.80;;;5.30;;
55589;SDS011;41452;42.780;23.116;2022-07-04T12:09:35;8.82;;;5.60;;
55589;SDS011;41452;42.780;23.116;2022-07-04T12:12:01;12.85;;;5.75;;
55589;SDS011;41452;42.780;23.116;2022-07-04T12:14:27;7.53;;;5.60;;
55589;SDS011;41452;42.780;23.116;2022-07-04T12:19:53;12.30;;;6.13;;
55589;SDS011;41452;42.780;23.116;2022-07-04T12:25:03;10.10;;;6.00;;
55589;SDS011;41452;42.780;23.116;2022-07-04T12:27:31;7.65;;;6.07;;
55589;SDS011;41452;42.780;23.116;2022-07-04T12:29:57;14.05;;;5.72;;
55589;SDS011;41452;42.780;23.116;2022-07-04T12:32:24;8.65;;;5.95;;
55589;SDS011;41452;42.780;23.116;2022-07-04T12:35:08;11.25;;;6.53;;
55589;SDS011;41452;42.780;23.116;2022-07-04T12:37:34;6.88;;;5.90;;
55589;SDS011;41452;42.780;23.116;2022-07-04T12:40:06;11.30;;;6.13;;
55589;SDS011;41452;42.780;23.116;2022-07-04T12:42:33;8.30;;;5.63;;
55589;SDS011;41452;42.780;23.116;2022-07-04T12:45:04;7.43;;;5.95;;
55589;SDS011;41452;42.780;23.116;2022-07-04T12:47:30;9.13;;;5.22;;
55589;SDS011;41452;42.780;23.116;2022-07-04T12:49:56;9.50;;;5.53;;
55589;SDS011;41452;42.780;23.116;2022-07-04T12:52:22;8.38;;;6.30;;
55589;SDS011;41452;42.780;23.116;2022-07-04T12:55:02;9.00;;;5.43;;
55589;SDS011;41452;42.780;23.116;2022-07-04T12:57:29;9.38;;;5.88;;
55589;SDS011;41452;42.780;23.116;2022-07-04T12:59:54;10.60;;;6.32;;
55589;SDS011;41452;42.780;23.116;2022-07-04T13:02:19;7.53;;;5.65;;
55589;SDS011;41452;42.780;23.116;2022-07-04T13:04:45;7.82;;;5.88;;
55589;SDS011;41452;42.780;23.116;2022-07-04T13:07:11;11.60;;;5.93;;
55589;SDS011;41452;42.780;23.116;2022-07-04T13:09:39;10.02;;;5.80;;
55589;SDS011;41452;42.780;23.116;2022-07-04T13:12:06;9.55;;;5.72;;
55589;SDS011;41452;42.780;23.116;2022-07-04T13:14:51;8.85;;;6.03;;
55589;SDS011;41452;42.780;23.116;2022-07-04T13:17:18;7.80;;;6.10;;
55589;SDS011;41452;42.780;23.116;2022-07-04T13:19:44;8.90;;;6.20;;
55589;SDS011;41452;42.780;23.116;2022-07-04T13:22:09;7.63;;;5.78;;
55589;SDS011;41452;42.780;23.116;2022-07-04T13:24:35;8.88;;;6.85;;
55589;SDS011;41452;42.780;23.116;2022-07-04T13:27:00;7.72;;;5.55;;
55589;SDS011;41452;42.780;23.116;2022-07-04T13:29:25;8.75;;;6.22;;
55589;SDS011;41452;42.780;23.116;2022-07-04T13:31:51;12.60;;;6.25;;
55589;SDS011;41452;42.780;23.116;2022-07-04T13:34:16;8.45;;;5.70;;
55589;SDS011;41452;42.780;23.116;2022-07-04T13:36:42;7.40;;;6.65;;
55589;SDS011;41452;42.780;23.116;2022-07-04T13:39:08;10.57;;;6.45;;
55589;SDS011;41452;42.780;23.116;2022-07-04T13:41:34;10.73;;;6.40;;
55589;SDS011;41452;42.780;23.116;2022-07-04T13:44:00;10.35;;;6.15;;
55589;SDS011;41452;42.780;23.116;2022-07-04T13:46:27;8.30;;;6.50;;
55589;SDS011;41452;42.780;23.116;2022-07-04T13:48:52;9.82;;;6.13;;
55589;SDS011;41452;42.780;23.116;2022-07-04T13:51:17;8.40;;;6.25;;
55589;SDS011;41452;42.780;23.116;2022-07-04T13:53:43;9.35;;;6.60;;
55589;SDS011;41452;42.780;23.116;2022-07-04T13:56:08;7.30;;;6.20;;
55589;SDS011;41452;42.780;23.116;2022-07-04T13:58:34;10.20;;;6.18;;
55589;SDS011;41452;42.780;23.116;2022-07-04T14:00:59;8.55;;;6.68;;
55589;SDS011;41452;42.780;23.116;2022-07-04T14:03:24;10.98;;;5.75;;
55589;SDS011;41452;42.780;23.116;2022-07-04T14:05:50;8.45;;;5.95;;
55589;SDS011;41452;42.780;23.116;2022-07-04T14:08:15;10.32;;;6.30;;
55589;SDS011;41452;42.780;23.116;2022-07-04T14:10:41;9.20;;;6.70;;
55589;SDS011;41452;42.780;23.116;2022-07-04T14:13:06;7.70;;;6.32;;
55589;SDS011;41452;42.780;23.116;2022-07-04T14:15:31;7.20;;;6.25;;
55589;SDS011;41452;42.780;23.116;2022-07-04T14:17:57;13.00;;;7.03;;
55589;SDS011;41452;42.780;23.116;2022-07-04T14:20:22;8.82;;;6.72;;
55589;SDS011;41452;42.780;23.116;2022-07-04T14:22:48;8.93;;;6.32;;
55589;SDS011;41452;42.780;23.116;2022-07-04T14:25:13;13.02;;;6.82;;
55589;SDS011;41452;42.780;23.116;2022-07-04T14:27:38;12.30;;;6.95;;
55589;SDS011;41452;42.780;23.116;2022-07-04T14:30:04;13.93;;;7.93;;
55589;SDS011;41452;42.780;23.116;2022-07-04T14:32:31;12.70;;;7.03;;
55589;SDS011;41452;42.780;23.116;2022-07-04T14:34:56;12.20;;;6.88;;
55589;SDS011;41452;42.780;23.116;2022-07-04T14:37:22;8.18;;;6.90;;
55589;SDS011;41452;42.780;23.116;2022-07-04T14:39:47;9.40;;;7.47;;
55589;SDS011;41452;42.780;23.116;2022-07-04T14:42:13;10.18;;;6.50;;
55589;SDS011;41452;42.780;23.116;2022-07-04T14:44:38;8.07;;;6.45;;
55589;SDS011;41452;42.780;23.116;2022-07-04T14:47:04;9.70;;;6.50;;
55589;SDS011;41452;42.780;23.116;2022-07-04T14:49:30;10.27;;;7.25;;
55589;SDS011;41452;42.780;23.116;2022-07-04T14:51:56;8.05;;;6.93;;
55589;SDS011;41452;42.780;23.116;2022-07-04T14:54:22;8.38;;;5.70;;
55589;SDS011;41452;42.780;23.116;2022-07-04T14:56:48;11.02;;;6.15;;
55589;SDS011;41452;42.780;23.116;2022-07-04T14:59:13;9.88;;;5.70;;
55589;SDS011;41452;42.780;23.116;2022-07-04T15:01:39;8.13;;;6.28;;
55589;SDS011;41452;42.780;23.116;2022-07-04T15:04:04;8.02;;;5.55;;
55589;SDS011;41452;42.780;23.116;2022-07-04T15:06:29;9.43;;;5.70;;